Time;durP1;ratioP1;P1;durP2;ratioP2;P2;SDS_P1;SDS_P2;PMS_P1;PMS_P2;Temp;Humidity;BMP_temperature;BMP_pressure;BME280_temperature;BME280_humidity;BME280_pressure;Samples;Min_cycle;Max_cycle;Signal;HPM_P1;HPM_P2
2023/05/18 00:02:47;;;;;;;3.87;3.40;;;9.00;57.90;;;;;;6277798;28;20238;-83
2023/05/18 00:05:50;;;;;;;7.90;4.03;;;8.90;58.00;;;;;;6270456;28;20237;-82
2023/05/18 00:08:54;;;;;;;5.07;3.43;;;8.90;58.20;;;;;;6265900;28;20238;-83
2023/05/18 00:11:57;;;;;;;5.50;3.60;;;8.80;58.30;;;;;;6269591;28;20245;-82
2023/05/18 00:15:00;;;;;;;6.50;3.80;;;8.80;58.40;;;;;;6262841;28;20245;-82
2023/05/18 00:18:05;;;;;;;6.70;4.27;;;8.80;58.50;;;;;;6258765;28;20242;-83
2023/05/18 00:21:09;;;;;;;5.43;3.80;;;8.70;58.90;;;;;;6258675;28;20265;-83
2023/05/18 00:24:13;;;;;;;8.87;3.90;;;8.70;59.00;;;;;;6257747;28;20320;-83
2023/05/18 00:27:16;;;;;;;7.83;4.17;;;8.60;59.10;;;;;;6251536;28;20328;-84
2023/05/18 00:30:20;;;;;;;7.43;3.67;;;8.60;59.10;;;;;;6244142;28;20242;-81
2023/05/18 00:33:24;;;;;;;6.57;3.70;;;8.60;59.20;;;;;;6259412;28;20234;-82
2023/05/18 00:36:28;;;;;;;6.43;3.50;;;8.60;59.30;;;;;;6267672;28;20245;-81
2023/05/18 00:39:31;;;;;;;4.93;3.40;;;8.60;59.20;;;;;;6257091;28;20297;-83
2023/05/18 00:42:34;;;;;;;4.07;3.70;;;8.50;59.40;;;;;;6242588;28;20253;-83
2023/05/18 00:45:37;;;;;;;6.50;3.60;;;8.50;59.30;;;;;;6245410;28;20252;-81
2023/05/18 00:48:42;;;;;;;4.80;3.93;;;8.50;59.50;;;;;;6258223;28;20292;-83
2023/05/18 00:51:46;;;;;;;5.57;3.97;;;8.50;59.70;;;;;;6253076;28;20714;-84
2023/05/18 00:54:50;;;;;;;5.30;3.80;;;8.50;59.80;;;;;;6255922;28;20316;-82
2023/05/18 00:57:55;;;;;;;7.40;4.13;;;8.40;59.90;;;;;;6258440;28;20752;-82
2023/05/18 01:01:01;;;;;;;4.23;3.70;;;8.40;60.20;;;;;;6265017;28;20242;-85
2023/05/18 01:04:06;;;;;;;5.80;3.50;;;8.40;60.10;;;;;;6259024;28;20238;-81
2023/05/18 01:07:11;;;;;;;5.67;3.57;;;8.30;60.20;;;;;;6250934;28;20234;-84
2023/05/18 01:10:17;;;;;;;4.27;3.90;;;8.30;60.50;;;;;;6259069;28;20241;-83
2023/05/18 01:13:30;;;;;;;8.77;3.60;;;8.20;60.90;;;;;;6257695;28;20850;-84
2023/05/18 01:16:42;;;;;;;4.10;3.50;;;8.20;60.70;;;;;;6252490;28;20246;-83
2023/05/18 01:20:07;;;;;;;6.90;3.73;;;8.20;60.70;;;;;;6252638;28;20909;-83
2023/05/18 01:23:46;;;;;;;4.97;3.77;;;8.20;60.90;;;;;;6250440;28;20242;-85
2023/05/18 01:26:56;;;;;;;5.03;3.97;;;8.20;61.00;;;;;;6255406;28;20230;-83
2023/05/18 01:30:01;;;;;;;4.97;3.93;;;8.20;61.20;;;;;;6250746;28;20231;-84
2023/05/18 01:33:08;;;;;;;5.17;3.90;;;8.20;61.40;;;;;;6266384;28;20246;-85
2023/05/18 01:36:11;;;;;;;3.87;3.57;;;8.20;61.50;;;;;;6251387;28;20242;-82
2023/05/18 01:39:15;;;;;;;6.87;3.83;;;8.20;61.50;;;;;;6248918;28;20241;-83
2023/05/18 01:42:25;;;;;;;8.47;4.60;;;8.20;61.60;;;;;;6249086;28;20279;-82
2023/05/18 01:45:30;;;;;;;4.97;3.53;;;8.20;61.80;;;;;;6259557;28;20230;-80
2023/05/18 01:48:37;;;;;;;6.53;3.83;;;8.20;61.80;;;;;;6263361;28;20234;-84
2023/05/18 01:51:45;;;;;;;7.70;3.77;;;8.20;61.70;;;;;;6253600;28;20417;-83
2023/05/18 01:54:57;;;;;;;8.10;4.10;;;8.20;61.70;;;;;;6249868;28;20234;-82
2023/05/18 01:58:04;;;;;;;5.90;4.47;;;8.20;61.80;;;;;;6249445;28;20237;-85
2023/05/18 02:01:08;;;;;;;5.00;3.43;;;8.20;61.90;;;;;;6258243;28;20738;-81
2023/05/18 02:04:11;;;;;;;6.63;3.50;;;8.20;61.80;;;;;;6259237;28;20691;-82
2023/05/18 02:07:15;;;;;;;10.20;3.97;;;8.20;61.60;;;;;;6258655;28;20253;-82
2023/05/18 02:10:21;;;;;;;4.10;3.60;;;8.20;61.60;;;;;;6257202;28;20310;-83
2023/05/18 02:13:26;;;;;;;5.67;3.53;;;8.20;61.70;;;;;;6244393;28;20675;-82
2023/05/18 02:16:29;;;;;;;6.77;3.73;;;8.20;61.60;;;;;;6251120;28;20246;-81
2023/05/18 02:19:32;;;;;;;4.60;3.77;;;8.10;61.80;;;;;;6251113;28;20225;-83
2023/05/18 02:22:36;;;;;;;5.30;3.50;;;8.10;61.90;;;;;;6254080;28;20315;-81
2023/05/18 02:25:39;;;;;;;8.90;3.93;;;8.10;61.80;;;;;;6250705;28;20897;-83
2023/05/18 02:28:44;;;;;;;6.10;3.90;;;8.10;62.00;;;;;;6260914;28;20742;-80
2023/05/18 02:31:47;;;;;;;7.77;4.03;;;8.00;61.90;;;;;;6239791;28;20276;-81
2023/05/18 02:34:52;;;;;;;4.03;3.63;;;8.10;62.10;;;;;;6259825;28;20239;-82
2023/05/18 02:37:57;;;;;;;7.40;4.13;;;8.00;62.00;;;;;;6238390;28;20250;-84
2023/05/18 02:41:00;;;;;;;4.27;3.80;;;8.00;62.50;;;;;;6259578;28;20238;-83
2023/05/18 02:44:05;;;;;;;4.13;3.83;;;8.00;62.50;;;;;;6251591;28;20764;-83
2023/05/18 02:47:08;;;;;;;4.87;3.50;;;8.00;62.50;;;;;;6246857;28;20238;-84
2023/05/18 02:50:12;;;;;;;7.03;3.80;;;8.00;62.50;;;;;;6249707;28;20242;-82
2023/05/18 02:53:15;;;;;;;4.70;3.67;;;8.00;62.70;;;;;;6255733;28;20700;-82
2023/05/18 02:56:18;;;;;;;4.73;3.30;;;8.00;62.80;;;;;;6255398;28;20241;-84
2023/05/18 02:59:27;;;;;;;6.70;4.03;;;7.90;62.70;;;;;;6246735;28;20241;-80
2023/05/18 03:02:30;;;;;;;6.60;3.57;;;7.90;62.80;;;;;;6258091;28;20242;-83
2023/05/18 03:05:33;;;;;;;5.73;4.00;;;7.90;62.90;;;;;;6256284;28;20230;-86
2023/05/18 03:08:37;;;;;;;4.37;3.77;;;7.90;62.90;;;;;;6264399;28;20250;-84
2023/05/18 03:11:40;;;;;;;4.90;3.80;;;7.90;63.00;;;;;;6258142;28;20366;-84
2023/05/18 03:14:44;;;;;;;4.10;3.73;;;7.80;63.30;;;;;;6255094;28;20249;-83
2023/05/18 03:17:48;;;;;;;5.93;3.60;;;7.80;63.40;;;;;;6242627;28;20822;-82
2023/05/18 03:20:51;;;;;;;7.17;4.00;;;7.80;63.30;;;;;;6259725;28;20257;-80
2023/05/18 03:23:54;;;;;;;5.77;3.80;;;7.80;63.60;;;;;;6254715;28;20293;-79
2023/05/18 03:26:59;;;;;;;5.47;3.97;;;7.80;63.80;;;;;;6252134;28;20310;-80
2023/05/18 03:30:05;;;;;;;9.43;4.20;;;7.80;63.80;;;;;;6254101;28;20238;-83
2023/05/18 03:33:08;;;;;;;4.37;3.53;;;7.80;63.70;;;;;;6244034;28;20265;-83
2023/05/18 03:36:11;;;;;;;7.23;4.40;;;7.80;63.70;;;;;;6255801;28;20241;-81
2023/05/18 03:39:14;;;;;;;4.97;4.03;;;7.90;63.60;;;;;;6249336;28;20241;-80
2023/05/18 03:42:18;;;;;;;7.30;4.10;;;8.00;63.50;;;;;;6257508;28;20238;-82
2023/05/18 03:45:22;;;;;;;6.07;3.87;;;8.00;63.60;;;;;;6259935;28;20244;-83
2023/05/18 03:48:26;;;;;;;9.30;3.97;;;8.00;63.60;;;;;;6254542;28;20290;-80
2023/05/18 03:51:30;;;;;;;8.77;3.93;;;8.00;63.90;;;;;;6255726;28;20333;-80
2023/05/18 03:54:33;;;;;;;6.30;4.10;;;7.90;64.00;;;;;;6256505;28;20311;-80
2023/05/18 03:57:36;;;;;;;6.60;4.37;;;8.00;63.70;;;;;;6250741;28;20261;-82
2023/05/18 04:00:41;;;;;;;5.47;3.90;;;8.00;63.70;;;;;;6246468;28;20238;-82
2023/05/18 04:03:44;;;;;;;8.00;4.10;;;8.00;63.80;;;;;;6258077;28;20229;-81
2023/05/18 04:06:48;;;;;;;7.53;4.37;;;8.00;64.00;;;;;;6248335;28;20284;-81
2023/05/18 04:09:51;;;;;;;6.37;3.80;;;8.00;63.80;;;;;;6251677;28;20725;-81
2023/05/18 04:12:54;;;;;;;7.87;4.13;;;8.00;63.90;;;;;;6251289;28;20358;-81
2023/05/18 04:15:59;;;;;;;4.47;3.77;;;8.10;63.70;;;;;;6250835;28;20238;-77
2023/05/18 04:19:02;;;;;;;10.30;4.40;;;8.10;63.70;;;;;;6257812;28;20360;-77
2023/05/18 04:22:09;;;;;;;5.80;3.80;;;8.10;63.60;;;;;;6251710;28;20737;-80
2023/05/18 04:25:13;;;;;;;6.77;3.70;;;8.10;63.50;;;;;;6253507;28;20610;-80
2023/05/18 04:28:16;;;;;;;8.13;3.90;;;8.10;64.00;;;;;;6259981;28;20696;-75
2023/05/18 04:31:21;;;;;;;5.53;4.07;;;8.10;63.90;;;;;;6226919;28;20234;-78
2023/05/18 04:34:25;;;;;;;5.90;4.37;;;8.10;63.70;;;;;;6252632;28;20233;-80
2023/05/18 04:37:28;;;;;;;9.47;4.33;;;8.10;63.70;;;;;;6254973;28;20846;-79
2023/05/18 04:40:32;;;;;;;4.40;3.70;;;8.20;63.90;;;;;;6251245;28;20319;-79
2023/05/18 04:43:36;;;;;;;7.97;3.43;;;8.20;63.90;;;;;;6259748;28;20240;-77
2023/05/18 04:46:41;;;;;;;4.53;3.50;;;8.30;63.40;;;;;;6258234;28;20241;-78
2023/05/18 04:49:44;;;;;;;4.43;3.83;;;8.30;63.50;;;;;;6263939;28;20313;-77
2023/05/18 04:52:48;;;;;;;5.67;3.77;;;8.50;63.20;;;;;;6252224;28;20714;-77
2023/05/18 04:55:53;;;;;;;8.10;3.90;;;8.60;62.90;;;;;;6260665;28;20724;-78
2023/05/18 04:58:58;;;;;;;8.23;4.60;;;8.90;62.70;;;;;;6262233;28;20241;-79
2023/05/18 05:02:04;;;;;;;8.40;3.70;;;9.00;62.00;;;;;;6253026;28;20242;-78
2023/05/18 05:05:07;;;;;;;5.60;3.60;;;9.20;61.50;;;;;;6258421;28;20245;-78
2023/05/18 05:08:10;;;;;;;4.27;3.60;;;9.40;61.20;;;;;;6255838;28;20292;-79
2023/05/18 05:11:13;;;;;;;5.13;3.47;;;9.70;60.60;;;;;;6257363;28;20238;-78
2023/05/18 05:14:16;;;;;;;8.80;4.00;;;10.00;60.60;;;;;;6257429;28;20283;-79
2023/05/18 05:17:22;;;;;;;4.87;3.40;;;10.10;59.40;;;;;;6257883;28;20289;-76
2023/05/18 05:20:25;;;;;;;8.50;3.47;;;10.20;59.30;;;;;;6253999;28;20643;-77
2023/05/18 05:23:28;;;;;;;6.63;3.77;;;10.40;59.00;;;;;;6246397;28;20960;-78
2023/05/18 05:26:31;;;;;;;5.57;3.00;;;10.60;58.60;;;;;;6245521;28;20234;-79
2023/05/18 05:29:34;;;;;;;6.20;4.00;;;10.80;58.20;;;;;;6263329;28;20305;-78
2023/05/18 05:32:38;;;;;;;6.83;3.63;;;11.10;57.70;;;;;;6244664;28;20277;-78
2023/05/18 05:35:42;;;;;;;9.83;4.10;;;11.10;57.50;;;;;;6257451;28;20232;-78
2023/05/18 05:38:45;;;;;;;7.10;4.30;;;11.40;57.40;;;;;;6259310;28;20230;-81
2023/05/18 05:41:48;;;;;;;7.30;3.87;;;11.60;57.60;;;;;;6258988;28;20226;-81
2023/05/18 05:44:51;;;;;;;5.80;3.63;;;11.90;56.50;;;;;;6260646;28;20270;-79
2023/05/18 05:47:55;;;;;;;4.80;3.10;;;12.20;56.10;;;;;;6249864;28;20312;-79
2023/05/18 05:50:59;;;;;;;7.17;3.60;;;12.40;56.20;;;;;;6246757;28;20241;-78
2023/05/18 05:54:02;;;;;;;6.90;3.30;;;12.50;55.30;;;;;;6255518;28;20770;-80
2023/05/18 05:57:06;;;;;;;3.97;3.10;;;12.70;55.90;;;;;;6252877;28;20353;-77
2023/05/18 06:00:10;;;;;;;6.10;3.80;;;13.00;54.50;;;;;;6259309;28;20258;-77
2023/05/18 06:03:15;;;;;;;6.13;3.57;;;13.20;53.90;;;;;;6254848;28;20317;-79
2023/05/18 06:06:18;;;;;;;7.27;3.33;;;13.50;54.00;;;;;;6251276;28;20244;-79
2023/05/18 06:09:21;;;;;;;4.50;3.53;;;13.70;53.80;;;;;;6252370;28;20875;-77
2023/05/18 06:12:24;;;;;;;3.60;3.30;;;13.90;52.80;;;;;;6258232;28;20276;-81
2023/05/18 06:15:27;;;;;;;4.20;3.10;;;14.20;52.80;;;;;;6255598;28;20238;-79
2023/05/18 06:18:33;;;;;;;6.73;3.40;;;14.40;52.80;;;;;;6259161;28;20234;-79
2023/05/18 06:21:36;;;;;;;7.87;3.57;;;14.70;52.50;;;;;;6248878;28;20629;-77
2023/05/18 06:24:39;;;;;;;6.50;3.50;;;14.90;52.00;;;;;;6256654;28;20240;-81
2023/05/18 06:27:43;;;;;;;8.13;3.47;;;15.20;51.10;;;;;;6248248;28;20241;-78
2023/05/18 06:30:46;;;;;;;6.87;3.70;;;15.20;50.40;;;;;;6257687;28;20231;-78
2023/05/18 06:33:51;;;;;;;7.17;3.33;;;14.90;50.80;;;;;;6249043;28;20722;-78
2023/05/18 06:36:54;;;;;;;4.83;3.30;;;14.80;51.20;;;;;;6257287;28;21116;-78
2023/05/18 06:39:58;;;;;;;4.37;3.00;;;14.90;50.80;;;;;;6245421;28;20254;-77
2023/05/18 06:43:01;;;;;;;6.50;2.90;;;15.00;50.50;;;;;;6254241;28;20633;-77
2023/05/18 06:46:04;;;;;;;5.63;3.03;;;14.90;50.90;;;;;;6249806;28;20309;-77
2023/05/18 06:49:09;;;;;;;3.07;2.83;;;15.10;50.40;;;;;;6247593;28;20319;-77
2023/05/18 06:52:12;;;;;;;4.00;3.03;;;15.10;50.50;;;;;;6251642;28;20284;-77
2023/05/18 06:55:15;;;;;;;5.00;2.90;;;15.20;50.30;;;;;;6255181;28;20312;-78
2023/05/18 06:58:18;;;;;;;6.30;3.17;;;15.40;50.00;;;;;;6253234;28;20403;-76
2023/05/18 07:01:22;;;;;;;4.07;3.00;;;15.20;49.80;;;;;;6255480;28;20237;-76
2023/05/18 07:04:27;;;;;;;4.87;2.57;;;15.20;50.40;;;;;;6257726;28;20307;-77
2023/05/18 07:07:30;;;;;;;3.90;3.07;;;15.40;50.00;;;;;;6253029;28;20241;-78
2023/05/18 07:10:34;;;;;;;6.40;3.07;;;15.60;50.00;;;;;;6255713;28;20239;-79
2023/05/18 07:13:37;;;;;;;6.17;3.10;;;15.60;50.10;;;;;;6250476;28;20238;-79
2023/05/18 07:16:42;;;;;;;7.80;3.17;;;15.80;49.60;;;;;;6247135;28;20758;-79
2023/05/18 07:19:46;;;;;;;6.03;2.97;;;15.50;49.10;;;;;;6255152;28;20257;-79
2023/05/18 07:22:49;;;;;;;5.60;3.50;;;15.20;49.10;;;;;;6248557;28;20241;-75
2023/05/18 07:25:56;;;;;;;9.20;3.70;;;15.00;50.90;;;;;;6242907;28;20241;-79
2023/05/18 07:28:59;;;;;;;3.87;2.90;;;14.90;50.10;;;;;;6250809;28;20392;-79
2023/05/18 07:32:03;;;;;;;6.70;3.23;;;14.90;50.00;;;;;;6249518;28;20293;-79
2023/05/18 07:35:08;;;;;;;6.10;2.70;;;14.80;48.90;;;;;;6251891;28;20245;-79
2023/05/18 07:38:11;;;;;;;5.33;3.23;;;14.80;50.10;;;;;;6250449;28;20331;-76
2023/05/18 07:41:14;;;;;;;4.37;3.10;;;14.70;49.90;;;;;;6251303;28;20237;-77
2023/05/18 07:44:17;;;;;;;8.03;2.93;;;14.80;50.10;;;;;;6252277;28;20844;-77
2023/05/18 07:47:21;;;;;;;7.63;3.10;;;14.80;49.40;;;;;;6255784;28;20713;-78
2023/05/18 07:50:26;;;;;;;6.50;3.10;;;14.60;49.70;;;;;;6260167;28;20226;-79
2023/05/18 07:53:29;;;;;;;4.70;2.90;;;14.50;50.60;;;;;;6255576;28;20248;-78
2023/05/18 07:56:32;;;;;;;4.43;2.90;;;14.50;50.00;;;;;;6251995;28;20311;-75
2023/05/18 07:59:35;;;;;;;3.20;2.90;;;14.70;49.20;;;;;;6253077;28;20242;-79
2023/05/18 08:02:38;;;;;;;6.30;3.00;;;14.80;48.80;;;;;;6244560;28;20269;-78
2023/05/18 08:05:43;;;;;;;4.20;3.00;;;14.80;48.90;;;;;;6246311;28;20245;-78
2023/05/18 08:08:47;;;;;;;5.57;3.13;;;14.60;48.60;;;;;;6257336;28;20317;-79
2023/05/18 08:11:51;;;;;;;5.30;4.00;;;14.60;48.20;;;;;;6246056;28;20292;-78
2023/05/18 08:14:54;;;;;;;3.30;3.03;;;14.60;48.90;;;;;;6239946;28;20333;-79
2023/05/18 08:17:57;;;;;;;3.73;2.60;;;14.50;47.50;;;;;;6260730;28;20250;-80
2023/05/18 08:21:03;;;;;;;3.13;2.80;;;14.30;48.40;;;;;;6259179;28;20238;-79
2023/05/18 08:24:07;;;;;;;4.93;3.20;;;14.50;48.80;;;;;;6258311;28;20684;-76
2023/05/18 08:27:10;;;;;;;4.83;2.80;;;14.60;48.10;;;;;;6261835;28;20325;-78
2023/05/18 08:30:14;;;;;;;3.83;3.07;;;14.50;48.80;;;;;;6261333;28;20225;-79
2023/05/18 08:33:18;;;;;;;6.47;3.03;;;14.60;48.70;;;;;;6257507;28;20238;-78
2023/05/18 08:36:22;;;;;;;3.47;3.07;;;14.60;48.70;;;;;;6248869;28;20862;-78
2023/05/18 08:39:26;;;;;;;2.80;2.60;;;14.60;48.80;;;;;;6248537;28;20254;-78
2023/05/18 08:42:33;;;;;;;3.37;2.73;;;14.40;48.70;;;;;;6256061;28;20298;-77
2023/05/18 08:45:58;;;;;;;7.47;3.07;;;14.10;49.10;;;;;;6242586;28;20247;-82
2023/05/18 08:49:03;;;;;;;5.23;3.00;;;14.20;49.20;;;;;;6250648;28;20261;-83
2023/05/18 08:52:09;;;;;;;6.67;2.90;;;14.10;48.90;;;;;;6248039;28;20231;-82
2023/05/18 08:55:14;;;;;;;4.40;2.90;;;14.00;49.30;;;;;;6263207;28;20249;-82
2023/05/18 08:58:21;;;;;;;5.23;2.90;;;14.10;49.10;;;;;;6258883;28;20241;-81
2023/05/18 09:01:27;;;;;;;4.87;2.90;;;14.20;49.10;;;;;;6261374;28;20245;-78
2023/05/18 09:04:33;;;;;;;4.80;3.10;;;14.30;48.80;;;;;;6271759;28;20230;-80
2023/05/18 09:07:39;;;;;;;2.83;2.63;;;14.80;48.20;;;;;;6246482;28;20373;-81
2023/05/18 09:10:42;;;;;;;3.67;3.03;;;15.30;47.20;;;;;;6257213;28;20244;-81
2023/05/18 09:13:46;;;;;;;3.70;2.60;;;15.60;46.80;;;;;;6245742;28;20245;-80
2023/05/18 09:16:49;;;;;;;6.40;3.80;;;15.80;46.60;;;;;;6257034;28;20320;-82
2023/05/18 09:19:52;;;;;;;4.07;2.60;;;15.90;46.70;;;;;;6251779;28;20326;-81
2023/05/18 09:22:57;;;;;;;5.73;2.90;;;15.60;47.80;;;;;;6256382;28;20243;-81
2023/05/18 09:26:03;;;;;;;6.13;2.53;;;15.50;48.10;;;;;;6247811;28;20840;-82
2023/05/18 09:29:17;;;;;;;2.87;2.57;;;15.40;46.60;;;;;;6253813;28;20725;-84
2023/05/18 09:32:20;;;;;;;3.57;2.43;;;15.50;46.70;;;;;;6249234;28;20641;-80
2023/05/18 09:35:25;;;;;;;5.67;3.33;;;15.50;46.40;;;;;;6252186;28;20238;-80
2023/05/18 09:38:29;;;;;;;6.27;5.50;;;15.50;46.10;;;;;;6259406;28;20249;-81
2023/05/18 09:41:32;;;;;;;3.90;3.10;;;15.40;46.80;;;;;;6257333;28;20243;-81
2023/05/18 09:44:35;;;;;;;5.77;2.97;;;15.60;46.50;;;;;;6258188;28;20292;-80
2023/05/18 09:47:38;;;;;;;4.50;2.80;;;15.80;46.80;;;;;;6259135;28;20238;-82
2023/05/18 09:50:44;;;;;;;4.93;3.00;;;16.10;46.40;;;;;;6251984;28;20238;-81
2023/05/18 09:53:53;;;;;;;5.07;2.67;;;16.40;45.80;;;;;;6253608;28;20275;-82
2023/05/18 09:56:57;;;;;;;9.03;4.40;;;16.80;45.00;;;;;;6260981;28;20384;-82
2023/05/18 10:00:14;;;;;;;6.53;4.97;;;17.00;44.40;;;;;;6254412;28;20227;-79
2023/05/18 10:03:18;;;;;;;4.90;3.57;;;16.80;44.20;;;;;;6253604;28;20233;-81
2023/05/18 10:06:27;;;;;;;7.40;3.20;;;16.50;44.60;;;;;;6261598;28;20241;-82
2023/05/18 10:09:31;;;;;;;4.90;3.60;;;16.20;44.80;;;;;;6258119;28;20230;-83
2023/05/18 10:12:39;;;;;;;3.20;2.87;;;16.00;46.20;;;;;;6258188;28;20311;-79
2023/05/18 10:15:48;;;;;;;4.83;2.90;;;16.40;45.00;;;;;;6251064;28;25925;-77
2023/05/18 10:18:54;;;;;;;10.13;9.23;;;16.50;44.90;;;;;;6246473;28;20797;-80
2023/05/18 10:21:58;;;;;;;4.50;3.00;;;16.50;45.20;;;;;;6243528;28;20238;-77
2023/05/18 10:25:04;;;;;;;7.53;5.50;;;16.70;45.30;;;;;;6257128;28;20245;-77
2023/05/18 10:28:09;;;;;;;3.03;2.50;;;16.70;45.00;;;;;;6243250;28;20579;-79
2023/05/18 10:31:15;;;;;;;2.80;2.57;;;16.70;44.20;;;;;;6266298;28;20257;-81
2023/05/18 10:34:20;;;;;;;4.07;2.90;;;16.20;44.40;;;;;;6262256;28;20757;-79
2023/05/18 10:37:25;;;;;;;3.20;2.50;;;16.10;45.10;;;;;;6241690;28;20280;-78
2023/05/18 10:40:30;;;;;;;5.27;2.57;;;16.20;45.00;;;;;;6252142;28;20230;-81
2023/05/18 10:43:34;;;;;;;6.47;2.80;;;16.50;44.40;;;;;;6248629;28;20231;-79
2023/05/18 10:46:37;;;;;;;2.77;2.53;;;16.60;44.00;;;;;;6252738;28;20247;-78
2023/05/18 10:49:42;;;;;;;4.37;2.50;;;16.40;44.40;;;;;;6254713;28;20313;-81
2023/05/18 10:52:48;;;;;;;2.73;2.50;;;16.50;44.50;;;;;;6252291;28;20665;-78
2023/05/18 10:55:54;;;;;;;3.00;2.80;;;16.70;44.40;;;;;;6236193;28;20365;-77
2023/05/18 10:58:57;;;;;;;2.77;2.30;;;17.00;44.80;;;;;;6228363;28;20370;-80
2023/05/18 11:02:01;;;;;;;3.70;2.60;;;17.20;43.00;;;;;;6232490;28;20238;-78
2023/05/18 11:05:06;;;;;;;2.67;2.00;;;17.40;43.50;;;;;;6231370;28;20601;-79
2023/05/18 11:08:10;;;;;;;2.70;2.50;;;17.80;44.00;;;;;;6220519;28;20239;-79
2023/05/18 11:11:15;;;;;;;6.70;2.77;;;17.70;44.30;;;;;;6214803;28;20236;-80
2023/05/18 11:14:26;;;;;;;3.30;2.57;;;17.90;43.40;;;;;;6233552;28;20242;-77
2023/05/18 11:17:30;;;;;;;6.43;2.80;;;17.50;44.10;;;;;;6226948;28;20239;-79
2023/05/18 11:20:33;;;;;;;5.87;4.10;;;17.20;43.90;;;;;;6227967;28;20231;-80
2023/05/18 11:23:38;;;;;;;4.17;2.70;;;17.00;44.10;;;;;;6224687;28;20243;-79
2023/05/18 11:26:44;;;;;;;6.43;3.20;;;16.60;44.40;;;;;;6234903;28;20274;-78
2023/05/18 11:29:47;;;;;;;3.70;3.00;;;16.50;45.10;;;;;;6248056;28;20313;-80
2023/05/18 11:32:52;;;;;;;7.00;5.07;;;16.70;45.30;;;;;;6221781;28;20390;-80
2023/05/18 11:36:06;;;;;;;11.80;10.63;;;17.10;43.50;;;;;;6232609;28;20265;-81
2023/05/18 11:39:12;;;;;;;4.80;3.20;;;17.50;44.10;;;;;;6222699;28;20242;-77
2023/05/18 11:42:19;;;;;;;5.93;2.70;;;18.00;43.20;;;;;;6233163;28;20246;-84
2023/05/18 11:45:22;;;;;;;3.07;2.67;;;18.10;43.60;;;;;;6227460;28;20235;-86
2023/05/18 11:48:28;;;;;;;2.97;2.77;;;18.30;43.10;;;;;;6225560;28;20627;-84
2023/05/18 11:51:33;;;;;;;5.83;2.83;;;18.20;42.70;;;;;;6224897;28;20237;-85
2023/05/18 11:54:41;;;;;;;2.87;2.37;;;18.20;42.30;;;;;;6237803;28;20725;-82
2023/05/18 11:57:48;;;;;;;2.37;2.23;;;18.20;42.00;;;;;;6240574;28;20243;-84
2023/05/18 12:00:52;;;;;;;3.53;2.77;;;18.10;42.20;;;;;;6234279;28;20254;-83
2023/05/18 12:03:55;;;;;;;4.50;2.40;;;18.30;41.90;;;;;;6228749;28;20262;-82
2023/05/18 12:06:59;;;;;;;2.63;2.43;;;18.30;42.70;;;;;;6231559;28;20239;-80
2023/05/18 12:10:04;;;;;;;2.70;2.30;;;18.40;42.70;;;;;;6225658;28;20270;-80
2023/05/18 12:13:09;;;;;;;3.80;2.90;;;18.80;42.30;;;;;;6220195;28;20242;-81
2023/05/18 12:16:14;;;;;;;4.37;3.03;;;18.70;42.60;;;;;;6243463;28;20771;-82
2023/05/18 12:19:18;;;;;;;5.10;2.80;;;18.60;42.40;;;;;;6227872;28;20253;-80
2023/05/18 12:22:21;;;;;;;3.70;2.73;;;18.50;42.70;;;;;;6244198;28;20238;-80
2023/05/18 12:25:27;;;;;;;2.87;2.53;;;18.30;42.60;;;;;;6239486;28;20227;-81
2023/05/18 12:28:32;;;;;;;2.50;2.40;;;18.00;43.30;;;;;;6231867;28;20726;-82
2023/05/18 12:31:36;;;;;;;4.93;2.60;;;17.80;43.40;;;;;;6232714;28;20868;-82
2023/05/18 12:34:39;;;;;;;2.63;2.43;;;17.60;43.60;;;;;;6238445;28;20230;-81
2023/05/18 12:37:43;;;;;;;3.13;2.60;;;17.80;43.70;;;;;;6228375;28;20262;-81
2023/05/18 12:40:49;;;;;;;3.57;2.77;;;18.10;42.80;;;;;;6234348;28;20895;-81
2023/05/18 12:43:54;;;;;;;2.87;2.60;;;18.30;42.90;;;;;;6236644;28;20237;-81
2023/05/18 12:46:57;;;;;;;3.37;2.60;;;18.60;43.50;;;;;;6231515;28;20321;-80
2023/05/18 12:50:03;;;;;;;2.73;2.23;;;18.80;42.60;;;;;;6233703;28;20238;-82
2023/05/18 12:53:06;;;;;;;3.33;2.77;;;18.70;42.10;;;;;;6226590;28;20781;-80
2023/05/18 12:56:10;;;;;;;4.40;2.80;;;18.40;42.60;;;;;;6240458;28;20246;-82
2023/05/18 12:59:18;;;;;;;5.43;2.47;;;18.20;43.00;;;;;;6234350;28;20242;-81
2023/05/18 13:02:33;;;;;;;3.47;2.37;;;18.00;43.30;;;;;;6238741;28;20257;-81
2023/05/18 13:05:36;;;;;;;3.43;2.60;;;18.10;42.60;;;;;;6239946;28;20231;-78
2023/05/18 13:08:39;;;;;;;2.77;2.57;;;18.20;42.00;;;;;;6231952;28;20317;-77
2023/05/18 13:11:48;;;;;;;5.37;2.57;;;18.30;42.50;;;;;;6237097;28;20243;-79
2023/05/18 13:15:13;;;;;;;3.77;2.43;;;18.50;43.20;;;;;;6238523;28;20232;-79
2023/05/18 13:18:16;;;;;;;7.13;2.70;;;18.80;42.00;;;;;;6231113;28;20239;-80
2023/05/18 13:21:20;;;;;;;2.63;2.43;;;18.90;41.90;;;;;;6234548;28;20242;-83
2023/05/18 13:24:23;;;;;;;4.10;2.40;;;19.10;42.30;;;;;;6235359;28;20270;-83
2023/05/18 13:27:26;;;;;;;2.70;2.50;;;19.30;40.90;;;;;;6240974;28;20234;-76
2023/05/18 13:30:31;;;;;;;2.93;2.73;;;19.20;40.90;;;;;;6236358;28;20288;-78
2023/05/18 13:33:35;;;;;;;3.27;2.50;;;19.00;41.40;;;;;;6242216;28;20231;-77
2023/05/18 13:36:38;;;;;;;2.47;2.27;;;18.80;40.90;;;;;;6235956;28;20284;-78
2023/05/18 13:39:41;;;;;;;2.87;2.63;;;18.80;41.20;;;;;;6230226;28;20254;-78
2023/05/18 13:42:49;;;;;;;2.50;2.30;;;18.70;41.80;;;;;;6229386;28;20723;-78
2023/05/18 13:45:53;;;;;;;2.80;2.53;;;18.60;41.60;;;;;;6234980;28;20408;-75
2023/05/18 13:48:56;;;;;;;2.73;2.53;;;18.70;42.00;;;;;;6244377;28;20273;-77
2023/05/18 13:52:00;;;;;;;3.93;2.70;;;18.80;41.50;;;;;;6259800;28;20238;-76
2023/05/18 13:55:04;;;;;;;2.90;2.57;;;18.80;41.80;;;;;;6246452;28;20227;-78
2023/05/18 13:58:07;;;;;;;5.37;2.80;;;18.90;41.20;;;;;;6257484;28;20235;-78
2023/05/18 14:01:12;;;;;;;3.17;2.93;;;18.80;41.70;;;;;;6262127;28;20246;-74
2023/05/18 14:04:16;;;;;;;5.03;3.20;;;18.80;41.70;;;;;;6265685;28;20253;-75
2023/05/18 14:07:19;;;;;;;3.23;3.00;;;18.80;41.90;;;;;;6254936;28;20249;-76
2023/05/18 14:10:22;;;;;;;4.80;3.27;;;18.90;41.40;;;;;;6253306;28;20249;-76
2023/05/18 14:13:25;;;;;;;3.23;3.13;;;18.90;41.40;;;;;;6256600;28;20210;-76
2023/05/18 14:16:30;;;;;;;3.13;2.93;;;18.80;41.50;;;;;;6265863;28;20222;-76
2023/05/18 14:19:33;;;;;;;2.80;2.60;;;18.80;41.70;;;;;;6276448;28;20414;-78
2023/05/18 14:22:36;;;;;;;3.00;2.80;;;18.80;41.70;;;;;;6248435;28;20251;-78
2023/05/18 14:25:39;;;;;;;5.10;2.73;;;18.90;41.90;;;;;;6241825;28;20234;-80
2023/05/18 14:28:42;;;;;;;6.83;3.60;;;19.10;41.20;;;;;;6230065;28;20360;-78
2023/05/18 14:31:47;;;;;;;3.57;3.27;;;19.00;41.10;;;;;;6225573;28;20247;-80
2023/05/18 14:34:54;;;;;;;3.60;3.10;;;18.80;41.00;;;;;;6243901;28;20241;-81
2023/05/18 14:37:57;;;;;;;2.87;2.67;;;19.00;41.20;;;;;;6232845;28;20843;-82
2023/05/18 14:41:00;;;;;;;5.17;2.97;;;19.00;41.20;;;;;;6236861;28;20238;-80
2023/05/18 14:44:03;;;;;;;3.43;3.07;;;19.00;42.00;;;;;;6232097;28;20235;-81
2023/05/18 14:47:08;;;;;;;3.50;3.23;;;19.10;41.20;;;;;;6227365;28;20856;-80
2023/05/18 14:50:12;;;;;;;4.20;3.33;;;19.00;41.70;;;;;;6230397;28;20231;-78
2023/05/18 14:53:15;;;;;;;2.83;2.50;;;19.00;41.50;;;;;;6222420;28;20695;-80
2023/05/18 14:56:18;;;;;;;3.10;2.80;;;19.10;41.20;;;;;;6233596;28;20370;-79
2023/05/18 14:59:22;;;;;;;3.80;3.03;;;19.10;41.00;;;;;;6239694;28;20265;-78
2023/05/18 15:02:26;;;;;;;4.93;3.20;;;19.00;41.20;;;;;;6234475;28;20804;-78
2023/05/18 15:05:30;;;;;;;3.00;2.80;;;19.00;41.40;;;;;;6227580;28;20231;-75
2023/05/18 15:08:33;;;;;;;4.17;2.67;;;19.10;41.90;;;;;;6241658;28;20254;-77
2023/05/18 15:11:36;;;;;;;2.73;2.40;;;19.30;42.00;;;;;;6239041;28;20234;-76
2023/05/18 15:14:39;;;;;;;2.97;2.67;;;19.40;41.70;;;;;;6249183;28;20273;-79
2023/05/18 15:17:43;;;;;;;3.13;2.83;;;19.40;41.00;;;;;;6267806;28;20227;-76
2023/05/18 15:20:47;;;;;;;3.67;2.50;;;19.40;41.10;;;;;;6256416;28;20234;-78
2023/05/18 15:23:50;;;;;;;2.90;2.70;;;19.40;40.90;;;;;;6269783;28;20234;-75
2023/05/18 15:26:53;;;;;;;2.57;2.43;;;19.30;41.50;;;;;;6257970;28;20234;-77
2023/05/18 15:29:56;;;;;;;3.27;2.40;;;19.10;41.60;;;;;;6260637;28;20234;-75
2023/05/18 15:33:02;;;;;;;4.30;2.53;;;19.20;41.80;;;;;;6264021;28;20429;-76
2023/05/18 15:36:08;;;;;;;3.77;2.60;;;19.30;42.20;;;;;;6238086;28;20253;-80
2023/05/18 15:39:11;;;;;;;2.60;2.40;;;19.30;41.10;;;;;;6225993;28;20238;-82
2023/05/18 15:42:14;;;;;;;5.67;2.50;;;19.20;41.20;;;;;;6239575;28;20297;-81
2023/05/18 15:45:17;;;;;;;5.73;2.60;;;19.10;41.80;;;;;;6235647;28;20291;-83
2023/05/18 15:48:21;;;;;;;4.23;2.80;;;19.20;42.00;;;;;;6243305;28;20796;-83
2023/05/18 15:51:24;;;;;;;2.67;2.47;;;19.00;41.90;;;;;;6240778;28;20237;-81
2023/05/18 15:54:28;;;;;;;4.03;2.70;;;19.00;42.20;;;;;;6235800;28;20321;-84
2023/05/18 15:57:31;;;;;;;3.07;2.57;;;19.00;41.80;;;;;;6231078;28;20226;-82
2023/05/18 16:00:34;;;;;;;3.40;2.37;;;18.90;41.50;;;;;;6228709;28;20930;-82
2023/05/18 16:03:39;;;;;;;4.57;2.40;;;18.80;41.00;;;;;;6231725;28;20231;-80
2023/05/18 16:06:42;;;;;;;4.70;2.10;;;18.80;40.80;;;;;;6221894;28;20223;-82